Portada
METAR-TAF:

METAR-TAF

Aeroports :

Aeroport Internacional Federico Fellini

Rimini, Itàlia

latitud: 44-02N, longitud: 012-37E, altitud: 12 m

Observació

L'informe es va fer fa 39 minuts, a les 23:50 UTC
Vent 3 kt del Sud/Sud-Oest
Temperatura 25°C
Humitat 61%
Pressió 1016 hPa
Visibilitat 10 km o més

METAR: LIPR 182350Z AUTO 21003KT 9999 // NCD 25/17 Q1016

Hora: 02:29 (00:29 UTC)

Pronòstic

L'informe es va fer fa 1 hora i 29 minuts, a les 23:00 UTC
Pronòstic vàlid del 19 a les 00 UTC al 19 a les 24 UTC
Vent 5 kt amb direcció variable
Visibilitat 10 km o més
sense núvols per sota de 1500 mi sense presència de cumulonimbus.
Evolucionant progressivament
l' 19 a les 08 UTC al 19 a les 10 UTC
Vent 10 kt del Nord
Evolucionant progressivament
l' 19 a les 15 UTC al 19 a les 17 UTC
Vent 5 kt amb direcció variable

TAF: LIPR 182300Z 1900/1924 VRB05KT CAVOK BECMG 1908/1910 01010KT BECMG 1915/1917 VRB05KT

Observacions i pronòstics meteorològics de més de 4000 aeroports (METAR i TAF).

Les estacions disponibles són els punts grocs i vermells al mapa.

Posi el ratolí al punt desitjat per veure el nom de l'estació.

Feu clic per veure les observacions i els pronòstics meteorològics.

Per canviar el mapa: feu clic els botons verds amb una creu de color negre per apropar; al botó verd amb un guió per allunyar la imatge; o en les fletxes verdes per a mapes adjacents.


METAR-TAF: